Viseu, Brazil
Current Conditions -  °F | °C
As of 7:00 PM on Monday 22 Dec 2014 (Local Time) from SBBE Reporting Station
Clear Clear  
Wind Chill: 84°   Ceiling: Unl
Heat Index: 90°   Visibility: 6mi
Dew Point: 72°   Wind: 7mph
Humidity: 66%   Direction: 40°NE
Pressure: 29.77"   Gusts: NA
Location:  1.2°S, 46.14°W
Report Text: SBBE 222200Z 04006KT CAVOK 29/22 Q1008
Loading
Personal Weather Stations






























Interactive Weather Map New forecast layout! Learn more

10-Day Weather Forecast

Advertisements
Track Severe Weather on mobile